createdAt,value
2023-03-13T00:01:50.067Z,11.59
2023-03-13T00:04:16.749Z,11.60
2023-03-13T00:06:43.482Z,11.62
2023-03-13T00:09:12.274Z,11.63
2023-03-13T00:11:39.053Z,11.63
2023-03-13T00:14:07.228Z,11.65
2023-03-13T00:16:37.635Z,11.65
2023-03-13T00:19:05.057Z,11.63
2023-03-13T00:21:31.727Z,11.66
2023-03-13T00:23:59.815Z,11.66
2023-03-13T00:26:27.539Z,11.65
2023-03-13T00:28:54.704Z,11.65
2023-03-13T00:31:26.450Z,11.65
2023-03-13T00:33:55.400Z,11.66
2023-03-13T00:36:27.417Z,11.68
2023-03-13T00:38:55.253Z,11.68
2023-03-13T00:41:24.573Z,11.69
2023-03-13T00:43:51.453Z,11.68
2023-03-13T00:46:20.269Z,11.68
2023-03-13T00:48:47.193Z,11.69
2023-03-13T00:51:15.343Z,11.69
2023-03-13T00:53:42.569Z,11.69
2023-03-13T00:56:12.113Z,11.70
2023-03-13T00:58:40.466Z,11.69
2023-03-13T01:01:24.357Z,11.70
2023-03-13T01:03:53.868Z,11.68
2023-03-13T01:06:24.077Z,11.67
2023-03-13T01:08:50.749Z,11.66
2023-03-13T01:11:20.822Z,11.65
2023-03-13T01:13:48.569Z,11.65
2023-03-13T01:16:18.954Z,11.66
2023-03-13T01:18:48.914Z,11.66
2023-03-13T01:21:19.118Z,11.66
2023-03-13T01:23:46.455Z,11.64
2023-03-13T01:26:13.227Z,11.64
2023-03-13T01:28:40.190Z,11.64
2023-03-13T01:31:15.264Z,11.65
2023-03-13T01:33:42.244Z,11.63
2023-03-13T01:36:09.350Z,11.62
2023-03-13T01:38:37.257Z,11.62
2023-03-13T01:41:04.737Z,11.63
2023-03-13T01:43:33.918Z,11.62
2023-03-13T01:46:21.421Z,11.61
2023-03-13T01:49:17.849Z,11.58
2023-03-13T01:51:56.148Z,11.61
2023-03-13T01:54:26.544Z,11.60
2023-03-13T01:57:10.189Z,11.58
2023-03-13T02:00:08.029Z,11.57
2023-03-13T02:02:42.391Z,11.57
2023-03-13T02:05:09.455Z,11.58
2023-03-13T02:07:43.603Z,11.59
2023-03-13T02:10:11.213Z,11.60
2023-03-13T02:12:39.676Z,11.60
2023-03-13T02:15:13.104Z,11.61
2023-03-13T02:17:40.827Z,11.60
2023-03-13T02:20:08.490Z,11.61
2023-03-13T02:22:44.150Z,11.61
2023-03-13T02:25:48.618Z,11.60
2023-03-13T02:28:22.876Z,11.60
2023-03-13T02:30:51.773Z,11.61
2023-03-13T02:33:19.613Z,11.61
2023-03-13T02:35:46.679Z,11.61
2023-03-13T02:38:22.989Z,11.62
2023-03-13T02:40:50.626Z,11.62
2023-03-13T02:43:22.402Z,11.61
2023-03-13T02:46:02.570Z,11.60
2023-03-13T02:48:39.874Z,11.62
2023-03-13T02:51:12.856Z,11.62
2023-03-13T02:53:40.112Z,11.61
2023-03-13T02:56:07.435Z,11.62
2023-03-13T02:58:49.859Z,11.63
2023-03-13T03:01:19.927Z,11.62
2023-03-13T03:03:46.999Z,11.63
2023-03-13T03:06:13.658Z,11.63
2023-03-13T03:08:41.573Z,11.63
2023-03-13T03:11:10.801Z,11.63
2023-03-13T03:13:37.452Z,11.63
2023-03-13T03:16:12.646Z,11.65
2023-03-13T03:18:39.409Z,11.63
2023-03-13T03:21:06.563Z,11.64
2023-03-13T03:23:37.872Z,11.64
2023-03-13T03:26:05.894Z,11.65
2023-03-13T03:28:33.132Z,11.64
2023-03-13T03:31:06.479Z,11.65
2023-03-13T03:33:34.558Z,11.65
2023-03-13T03:36:07.395Z,11.64
2023-03-13T03:38:35.034Z,11.63
2023-03-13T03:41:02.312Z,11.64
2023-03-13T03:43:31.476Z,11.64
2023-03-13T03:45:58.665Z,11.66
2023-03-13T03:48:26.521Z,11.66
2023-03-13T03:50:53.789Z,11.65
2023-03-13T03:53:21.733Z,11.66
2023-03-13T03:55:48.529Z,11.66
2023-03-13T03:58:15.354Z,11.64
2023-03-13T04:01:00.341Z,11.62
2023-03-13T04:03:27.642Z,11.64
2023-03-13T04:05:54.460Z,11.64
2023-03-13T04:08:23.760Z,11.65
2023-03-13T04:10:50.783Z,11.67
2023-03-13T04:13:20.794Z,11.66
2023-03-13T04:15:48.828Z,11.67
2023-03-13T04:18:16.725Z,11.68
2023-03-13T04:20:44.508Z,11.69
2023-03-13T04:23:12.104Z,11.70
2023-03-13T04:25:38.832Z,11.71
2023-03-13T04:28:09.187Z,11.71
2023-03-13T04:30:43.286Z,11.72
2023-03-13T04:33:27.684Z,11.72
2023-03-13T04:36:06.234Z,11.71
2023-03-13T04:38:47.833Z,11.70
2023-03-13T04:41:34.750Z,11.69
2023-03-13T04:44:27.408Z,11.69
2023-03-13T04:47:12.486Z,11.71
2023-03-13T04:49:59.160Z,11.71
2023-03-13T04:52:40.756Z,11.72
2023-03-13T04:55:27.657Z,11.70
2023-03-13T04:58:03.142Z,11.71
2023-03-13T05:00:46.206Z,11.71
2023-03-13T05:03:15.902Z,11.71
2023-03-13T05:06:00.567Z,11.72
2023-03-13T05:08:46.015Z,11.73
2023-03-13T05:11:27.236Z,11.75
2023-03-13T05:14:04.500Z,11.75
2023-03-13T05:16:49.708Z,11.76
2023-03-13T05:19:34.574Z,11.75
2023-03-13T05:22:21.037Z,11.75
2023-03-13T05:25:10.459Z,11.76
2023-03-13T05:27:55.456Z,11.78
2023-03-13T05:30:52.260Z,11.78
2023-03-13T05:33:36.337Z,11.48
2023-03-13T05:36:10.762Z,11.22
2023-03-13T05:38:57.676Z,10.93
2023-03-13T05:41:50.456Z,10.70
2023-03-13T05:44:35.559Z,10.62
2023-03-13T05:47:23.807Z,10.53
2023-03-13T05:50:06.596Z,10.49
2023-03-13T05:52:37.259Z,10.50
2023-03-13T05:55:06.894Z,10.48
2023-03-13T05:57:53.822Z,10.49
2023-03-13T06:00:43.758Z,10.44
2023-03-13T06:03:46.230Z,10.46
2023-03-13T06:06:14.544Z,10.51
2023-03-13T06:08:47.252Z,10.53
2023-03-13T06:11:14.576Z,10.55
2023-03-13T06:13:41.437Z,10.51
2023-03-13T06:16:26.994Z,10.49
2023-03-13T06:18:58.182Z,10.52
2023-03-13T06:21:24.876Z,10.55
2023-03-13T06:23:51.530Z,10.55
2023-03-13T06:26:18.210Z,10.57
2023-03-13T06:28:44.924Z,10.57
2023-03-13T06:31:11.782Z,10.58
2023-03-13T06:33:38.440Z,10.60
2023-03-13T06:36:05.729Z,10.61
2023-03-13T06:38:32.377Z,10.64
2023-03-13T06:40:59.163Z,10.72
2023-03-13T06:43:25.942Z,10.80
2023-03-13T06:45:52.660Z,10.82
2023-03-13T06:48:20.184Z,10.84
2023-03-13T06:50:47.273Z,10.89
2023-03-13T06:53:20.608Z,10.95
2023-03-13T06:55:49.052Z,11.04
2023-03-13T06:58:31.058Z,11.12
2023-03-13T07:01:09.224Z,11.20
2023-03-13T07:03:36.506Z,11.25
2023-03-13T07:06:04.115Z,11.30
2023-03-13T07:08:30.920Z,11.33
2023-03-13T07:11:03.553Z,11.40
2023-03-13T07:13:30.684Z,11.51
2023-03-13T07:16:00.461Z,11.58
2023-03-13T07:18:27.191Z,11.56
2023-03-13T07:20:55.077Z,11.56
2023-03-13T07:23:23.105Z,11.53
2023-03-13T07:26:00.006Z,11.58
2023-03-13T07:28:27.415Z,11.60
2023-03-13T07:30:54.047Z,11.61
2023-03-13T07:33:20.857Z,11.74
2023-03-13T07:35:51.236Z,11.86
2023-03-13T07:38:19.041Z,11.93
2023-03-13T07:40:53.448Z,12.01
2023-03-13T07:43:20.815Z,11.99
2023-03-13T07:45:51.680Z,12.21
2023-03-13T07:48:19.227Z,12.50
2023-03-13T07:50:46.133Z,12.81
2023-03-13T07:53:15.017Z,13.17
2023-03-13T07:55:42.865Z,13.47
2023-03-13T07:58:09.969Z,13.60
2023-03-13T08:00:36.764Z,13.80
2023-03-13T08:03:06.804Z,13.86
2023-03-13T08:05:33.716Z,14.01
2023-03-13T08:08:00.319Z,14.25
2023-03-13T08:10:27.043Z,14.39
2023-03-13T08:12:53.720Z,14.45
2023-03-13T08:15:25.562Z,14.57
2023-03-13T08:17:53.022Z,14.69
2023-03-13T08:20:19.587Z,14.70
2023-03-13T08:22:46.650Z,14.65
2023-03-13T08:25:14.158Z,14.61
2023-03-13T08:27:41.047Z,14.53
2023-03-13T08:30:08.449Z,14.40
2023-03-13T08:32:36.495Z,14.31
2023-03-13T08:35:04.228Z,14.42
2023-03-13T08:37:30.956Z,14.68
2023-03-13T08:39:57.694Z,14.91
2023-03-13T08:42:24.352Z,14.96
2023-03-13T08:44:51.002Z,15.01
2023-03-13T08:47:18.261Z,15.16
2023-03-13T08:49:45.155Z,15.30
2023-03-13T08:52:11.815Z,15.32
2023-03-13T08:54:38.378Z,15.64
2023-03-13T08:57:05.036Z,15.78
2023-03-13T08:59:31.832Z,15.86
2023-03-13T09:01:58.645Z,15.97
2023-03-13T09:04:25.321Z,16.12
2023-03-13T09:31:52.517Z,17.01
2023-03-13T09:34:19.241Z,16.83
2023-03-13T09:36:45.881Z,16.68
2023-03-13T09:39:12.804Z,16.13
2023-03-13T09:41:44.053Z,15.61
2023-03-13T09:44:16.893Z,15.68
2023-03-13T09:46:57.388Z,16.28
2023-03-13T09:49:30.407Z,16.94
2023-03-13T09:52:12.326Z,17.33
2023-03-13T09:54:46.560Z,17.63
2023-03-13T09:57:20.557Z,17.94
2023-03-13T10:00:28.510Z,17.95
2023-03-13T10:03:06.014Z,18.07
2023-03-13T10:05:33.454Z,18.14
2023-03-13T10:08:17.240Z,18.10
2023-03-13T10:11:04.076Z,18.02
2023-03-13T10:13:33.402Z,17.93
2023-03-13T10:16:02.596Z,17.86
2023-03-13T10:18:29.287Z,17.87
2023-03-13T10:21:00.876Z,17.90
2023-03-13T10:23:38.658Z,17.93
2023-03-13T10:26:05.950Z,17.86
2023-03-13T10:28:32.578Z,17.73
2023-03-13T10:31:10.103Z,17.69
2023-03-13T10:33:37.343Z,17.66
2023-03-13T10:36:12.902Z,17.68
2023-03-13T10:38:49.999Z,17.87
2023-03-13T10:41:28.294Z,17.97
2023-03-13T10:43:59.342Z,18.09
2023-03-13T10:46:34.213Z,18.39
2023-03-13T10:49:04.136Z,18.53
2023-03-13T10:51:37.583Z,18.71
2023-03-13T10:54:40.827Z,18.74
2023-03-13T10:57:30.082Z,19.10
2023-03-13T10:59:57.141Z,19.32
2023-03-13T11:02:25.714Z,19.28
2023-03-13T11:04:54.057Z,19.26
2023-03-13T11:07:26.921Z,18.82
2023-03-13T11:10:02.545Z,18.53
2023-03-13T11:12:34.053Z,18.06
2023-03-13T11:15:01.532Z,17.76
2023-03-13T11:17:38.010Z,17.72
2023-03-13T11:20:28.623Z,17.69
2023-03-13T11:23:08.260Z,17.78
2023-03-13T11:26:08.682Z,17.94
2023-03-13T11:28:43.965Z,17.99
2023-03-13T11:31:17.654Z,18.20
2023-03-13T11:33:53.318Z,18.46
2023-03-13T11:36:32.054Z,18.68
2023-03-13T11:39:23.484Z,18.79
2023-03-13T11:42:05.270Z,18.92
2023-03-13T11:44:42.257Z,19.14
2023-03-13T11:47:38.003Z,19.24
2023-03-13T11:50:12.317Z,19.42
2023-03-13T11:52:47.810Z,19.59
2023-03-13T11:55:45.532Z,19.82
2023-03-13T11:58:22.585Z,19.88
2023-03-13T12:00:56.025Z,19.64
2023-03-13T12:03:34.768Z,19.45
2023-03-13T12:06:02.654Z,19.38
2023-03-13T12:08:30.876Z,19.67
2023-03-13T12:11:20.360Z,19.99
2023-03-13T12:14:10.207Z,20.13
2023-03-13T12:17:06.074Z,20.26
2023-03-13T12:19:58.573Z,20.25
2023-03-13T12:22:39.198Z,20.02
2023-03-13T12:25:17.382Z,19.87
2023-03-13T12:27:51.171Z,19.90
2023-03-13T12:30:34.057Z,19.80
2023-03-13T12:33:10.869Z,19.57
2023-03-13T12:35:38.121Z,19.21
2023-03-13T12:38:26.557Z,18.79
2023-03-13T12:41:13.762Z,18.58
2023-03-13T12:43:45.246Z,18.51
2023-03-13T12:46:41.458Z,18.47
2023-03-13T12:49:13.661Z,18.47
2023-03-13T12:51:51.907Z,18.53
2023-03-13T12:54:24.640Z,18.76
2023-03-13T12:57:10.121Z,18.84
2023-03-13T12:59:46.628Z,19.06
2023-03-13T13:02:25.285Z,19.23
2023-03-13T13:04:54.650Z,19.17
2023-03-13T13:07:28.624Z,19.03
2023-03-13T13:10:05.233Z,19.10
2023-03-13T13:12:31.973Z,19.23
2023-03-13T13:15:03.961Z,19.42
2023-03-13T13:17:40.709Z,19.56
2023-03-13T13:20:36.698Z,19.89
2023-03-13T13:23:34.175Z,20.08
2023-03-13T13:26:36.359Z,19.85
2023-03-13T13:29:12.258Z,19.72
2023-03-13T13:31:48.327Z,19.85
2023-03-13T13:34:38.083Z,19.54
2023-03-13T13:37:17.623Z,19.54
2023-03-13T13:39:48.275Z,19.68
2023-03-13T13:42:32.982Z,19.68
2023-03-13T13:45:01.456Z,19.59
2023-03-13T13:47:32.487Z,19.63
2023-03-13T13:50:00.743Z,19.49
2023-03-13T13:52:32.564Z,19.26
2023-03-13T13:54:59.246Z,19.29
2023-03-13T13:57:32.899Z,19.34
2023-03-13T14:00:06.819Z,19.79
2023-03-13T14:02:38.398Z,20.08
2023-03-13T14:05:16.325Z,20.26
2023-03-13T14:08:18.285Z,20.39
2023-03-13T14:11:22.446Z,20.60
2023-03-13T14:14:18.296Z,20.62
2023-03-13T14:16:46.838Z,20.51
2023-03-13T14:19:30.092Z,20.71
2023-03-13T14:22:05.193Z,21.00
2023-03-13T14:24:31.898Z,21.06
2023-03-13T14:26:58.637Z,20.69
2023-03-13T14:29:28.105Z,20.41
2023-03-13T14:31:59.539Z,20.53
2023-03-13T14:34:28.633Z,20.59
2023-03-13T14:37:14.875Z,20.60
2023-03-13T14:39:45.782Z,20.92
2023-03-13T14:42:14.997Z,21.16
2023-03-13T14:44:44.121Z,21.49
2023-03-13T14:47:23.660Z,21.09
2023-03-13T14:49:59.179Z,20.94
2023-03-13T14:52:27.570Z,20.82
2023-03-13T14:55:02.203Z,20.80
2023-03-13T14:57:28.965Z,20.67
2023-03-13T15:00:27.492Z,20.32
2023-03-13T15:03:20.056Z,20.27
2023-03-13T15:05:49.456Z,20.40
2023-03-13T15:08:23.827Z,20.61
2023-03-13T15:10:50.858Z,20.53
2023-03-13T15:13:20.550Z,20.38
2023-03-13T15:15:47.902Z,20.52
2023-03-13T15:18:28.817Z,20.47
2023-03-13T15:21:22.446Z,20.12
2023-03-13T15:23:52.183Z,19.94
2023-03-13T15:26:19.002Z,19.68
2023-03-13T15:28:45.850Z,19.31
2023-03-13T15:31:14.010Z,19.05
2023-03-13T15:33:41.107Z,18.83
2023-03-13T15:36:08.321Z,18.63
2023-03-13T15:38:35.129Z,18.44
2023-03-13T15:41:01.923Z,18.17
2023-03-13T15:43:29.025Z,17.99
2023-03-13T15:45:55.988Z,17.86
2023-03-13T15:48:25.050Z,17.75
2023-03-13T15:50:52.958Z,17.69
2023-03-13T15:53:21.873Z,17.60
2023-03-13T15:55:49.374Z,17.52
2023-03-13T15:58:16.615Z,17.46
2023-03-13T16:00:44.026Z,17.38
2023-03-13T16:03:16.442Z,17.28
2023-03-13T16:05:43.872Z,17.24
2023-03-13T16:08:29.228Z,17.20
2023-03-13T16:11:01.308Z,17.19
2023-03-13T16:13:27.902Z,17.19
2023-03-13T16:15:54.664Z,17.17
2023-03-13T16:18:22.860Z,17.15
2023-03-13T16:20:50.454Z,17.14
2023-03-13T16:23:17.154Z,17.09
2023-03-13T16:25:44.811Z,17.01
2023-03-13T16:28:14.732Z,16.89
2023-03-13T16:30:43.578Z,16.65
2023-03-13T16:33:11.241Z,16.49
2023-03-13T16:35:38.300Z,16.29
2023-03-13T16:38:05.332Z,16.13
2023-03-13T16:40:33.615Z,16.01
2023-03-13T16:43:00.585Z,15.87
2023-03-13T16:45:28.015Z,15.66
2023-03-13T16:47:54.668Z,15.48
2023-03-13T16:50:24.475Z,15.38
2023-03-13T16:52:52.016Z,15.29
2023-03-13T16:55:19.808Z,15.25
2023-03-13T16:57:46.849Z,15.27
2023-03-13T17:00:20.561Z,15.28
2023-03-13T17:02:48.199Z,15.08
2023-03-13T17:05:16.138Z,14.88
2023-03-13T17:07:44.579Z,14.66
2023-03-13T17:10:19.023Z,14.57
2023-03-13T17:12:46.183Z,14.36
2023-03-13T17:15:12.856Z,14.29
2023-03-13T17:17:40.038Z,14.20
2023-03-13T17:20:09.759Z,14.12
2023-03-13T17:22:36.502Z,14.05
2023-03-13T17:25:03.576Z,14.05
2023-03-13T17:27:30.690Z,14.05
2023-03-13T17:29:57.312Z,14.01
2023-03-13T17:32:25.227Z,14.05
2023-03-13T17:34:52.522Z,14.24
2023-03-13T17:37:21.085Z,14.41
2023-03-13T17:39:49.012Z,14.57
2023-03-13T17:42:15.644Z,14.68
2023-03-13T17:44:42.418Z,14.79
2023-03-13T17:47:18.106Z,14.90
2023-03-13T17:49:45.134Z,14.97
2023-03-13T17:52:17.599Z,15.03
2023-03-13T17:54:45.336Z,15.09
2023-03-13T17:57:17.890Z,15.12
2023-03-13T17:59:45.062Z,15.15
2023-03-13T18:02:15.722Z,15.22
2023-03-13T18:04:42.962Z,15.24
2023-03-13T18:07:25.113Z,15.27
2023-03-13T18:09:51.849Z,15.27
2023-03-13T18:12:18.752Z,15.24
2023-03-13T18:14:45.510Z,15.24
2023-03-13T18:17:18.091Z,15.27
2023-03-13T18:19:45.489Z,15.29
2023-03-13T18:22:18.014Z,15.31
2023-03-13T18:24:45.282Z,15.32
2023-03-13T18:27:13.883Z,15.32
2023-03-13T18:29:40.975Z,15.08
2023-03-13T18:32:07.984Z,14.43
2023-03-13T18:34:35.130Z,14.03
2023-03-13T18:37:05.108Z,13.94
2023-03-13T18:39:32.936Z,13.99
2023-03-13T18:41:59.983Z,14.06
2023-03-13T18:44:26.842Z,14.09
2023-03-13T18:46:53.570Z,14.10
2023-03-13T18:49:21.930Z,14.12
2023-03-13T18:51:50.141Z,14.13
2023-03-13T18:54:17.066Z,14.13
2023-03-13T18:56:45.091Z,14.14
2023-03-13T18:59:14.255Z,14.12
2023-03-13T19:01:40.913Z,14.10
2023-03-13T20:19:56.607Z,12.14
2023-03-13T20:22:23.470Z,12.30
2023-03-13T20:24:50.168Z,12.47
2023-03-13T20:27:16.789Z,12.63
2023-03-13T20:29:43.352Z,12.75
2023-03-13T20:32:11.397Z,12.84
2023-03-13T20:34:38.164Z,12.92
2023-03-13T20:37:05.029Z,12.97
2023-03-13T20:39:31.687Z,13.01
2023-03-13T20:42:02.710Z,13.03
2023-03-13T20:44:29.807Z,13.05
2023-03-13T20:46:56.421Z,13.06
2023-03-13T20:49:23.166Z,13.07
2023-03-13T20:51:49.737Z,13.09
2023-03-13T20:54:16.477Z,13.09
2023-03-13T20:56:43.120Z,13.09
2023-03-13T20:59:09.846Z,13.09
2023-03-13T21:01:36.469Z,13.09
2023-03-13T21:04:04.200Z,13.10
2023-03-13T21:06:30.916Z,13.09
2023-03-13T21:08:57.573Z,13.10
2023-03-13T21:11:24.291Z,13.10
2023-03-13T21:13:51.624Z,13.10
2023-03-13T21:16:19.062Z,13.09
2023-03-13T21:18:46.480Z,13.09
2023-03-13T21:21:17.073Z,13.10
2023-03-13T21:23:43.994Z,13.10
2023-03-13T21:26:11.233Z,13.10
2023-03-13T21:28:39.034Z,13.11
2023-03-13T21:31:11.621Z,13.13
2023-03-13T21:33:39.239Z,13.12
2023-03-13T21:36:06.437Z,13.11
2023-03-13T21:38:33.291Z,13.11
2023-03-13T21:41:00.032Z,13.10
2023-03-13T21:43:28.288Z,13.11
2023-03-13T21:45:57.115Z,13.10
2023-03-13T21:48:23.809Z,13.10
2023-03-13T21:50:53.819Z,13.11
2023-03-13T21:53:20.822Z,13.09
2023-03-13T21:55:51.336Z,13.08
2023-03-13T21:58:17.990Z,13.04
2023-03-13T22:00:44.913Z,13.06
2023-03-13T22:03:11.788Z,13.06
2023-03-13T22:05:45.350Z,13.05
2023-03-13T22:08:12.353Z,13.04
2023-03-13T22:10:39.551Z,13.04
2023-03-13T22:13:07.840Z,13.03
2023-03-13T22:15:34.577Z,13.03
2023-03-13T22:18:01.533Z,13.01
2023-03-13T22:20:28.174Z,12.99
2023-03-13T22:22:54.891Z,12.98
2023-03-13T22:25:21.571Z,12.98
2023-03-13T22:27:48.384Z,12.96
2023-03-13T22:30:15.159Z,12.94
2023-03-13T22:32:41.917Z,12.93
2023-03-13T22:35:09.035Z,12.93
2023-03-13T22:37:35.956Z,12.91
2023-03-13T22:40:02.791Z,12.90
2023-03-13T22:42:29.625Z,12.90
2023-03-13T22:44:56.234Z,12.88
2023-03-13T22:47:25.849Z,12.85
2023-03-13T22:49:53.654Z,12.84
2023-03-13T22:52:22.129Z,12.82
2023-03-13T22:54:48.860Z,12.80
2023-03-13T22:57:15.545Z,12.80
2023-03-13T22:59:42.169Z,12.78
2023-03-13T23:02:08.805Z,12.77
2023-03-13T23:04:35.482Z,12.75
2023-03-13T23:07:02.191Z,12.74
2023-03-13T23:09:28.835Z,12.73
2023-03-13T23:11:55.541Z,12.71
2023-03-13T23:14:22.099Z,12.70
2023-03-13T23:16:48.920Z,12.69
2023-03-13T23:19:15.557Z,12.68
2023-03-13T23:21:42.270Z,12.66
2023-03-13T23:24:08.897Z,12.66
2023-03-13T23:26:35.712Z,12.65
2023-03-13T23:29:02.423Z,12.64
2023-03-13T23:31:29.190Z,12.63
2023-03-13T23:33:55.942Z,12.63
2023-03-13T23:36:22.610Z,12.62
2023-03-13T23:38:50.233Z,12.63
2023-03-13T23:41:16.902Z,12.62
2023-03-13T23:43:43.536Z,12.61
2023-03-13T23:46:25.894Z,12.61
2023-03-13T23:48:54.135Z,12.62
2023-03-13T23:51:20.965Z,12.59
2023-03-13T23:53:48.010Z,12.58
2023-03-13T23:56:14.845Z,12.58
2023-03-13T23:58:41.477Z,12.57
